Time;durP1;ratioP1;P1;durP2;ratioP2;P2;SDS_P1;SDS_P2;PMS_P1;PMS_P2;Temp;Humidity;BMP_temperature;BMP_pressure;BME280_temperature;BME280_humidity;BME280_pressure;Samples;Min_cycle;Max_cycle;Signal;HPM_P1;HPM_P2
2022/10/24 00:00:53;;;;;;;4.40;3.90;;;;;;;11.98;100.00;97071.03;4961202;28;22450;-62
2022/10/24 00:03:21;;;;;;;4.50;4.10;;;;;;;12.00;100.00;97080.44;5013815;28;20550;-62
2022/10/24 00:05:49;;;;;;;5.67;4.30;;;;;;;12.00;100.00;97076.97;5019329;28;20203;-62
2022/10/24 00:08:18;;;;;;;4.60;4.20;;;;;;;11.97;100.00;97096.75;4960187;28;20363;-60
2022/10/24 00:10:48;;;;;;;5.90;4.40;;;;;;;11.95;100.00;97097.97;5012943;28;20195;-63
2022/10/24 00:13:17;;;;;;;5.47;3.83;;;;;;;11.99;100.00;97094.72;5006522;28;20227;-63
2022/10/24 00:15:49;;;;;;;4.60;4.20;;;;;;;12.00;100.00;97092.91;5019650;28;20445;-63
2022/10/24 00:18:17;;;;;;;4.67;4.27;;;;;;;11.99;100.00;97089.41;4972192;28;20710;-63
2022/10/24 00:20:45;;;;;;;4.97;3.57;;;;;;;12.04;100.00;97074.75;5016768;28;20740;-63
2022/10/24 00:23:13;;;;;;;3.97;3.67;;;;;;;12.08;100.00;97070.69;4980767;28;20301;-62
2022/10/24 00:25:41;;;;;;;3.53;3.23;;;;;;;12.05;100.00;97069.25;4990674;28;20265;-62
2022/10/24 00:28:10;;;;;;;5.60;3.93;;;;;;;12.08;100.00;97071.50;5011934;28;20792;-62
2022/10/24 00:30:38;;;;;;;4.93;3.90;;;;;;;12.08;100.00;97063.53;5016781;28;20649;-60
2022/10/24 00:33:07;;;;;;;4.93;4.10;;;;;;;12.10;100.00;97055.38;4965373;28;20227;-61
2022/10/24 00:35:35;;;;;;;4.67;4.20;;;;;;;12.04;100.00;97024.28;5013722;28;20217;-60
2022/10/24 00:38:04;;;;;;;4.97;3.50;;;;;;;12.00;100.00;97018.53;4997040;28;20230;-61
2022/10/24 00:40:32;;;;;;;7.40;3.70;;;;;;;12.06;100.00;97031.06;4984587;28;20242;-63
2022/10/24 00:43:00;;;;;;;4.30;3.73;;;;;;;12.02;100.00;97004.06;5013657;28;20678;-62
2022/10/24 00:45:40;;;;;;;6.40;3.70;;;;;;;12.05;100.00;96968.34;5014039;28;20195;-61
2022/10/24 00:48:15;;;;;;;7.07;3.73;;;;;;;12.07;100.00;96968.13;4940542;28;20220;-61
2022/10/24 00:50:44;;;;;;;4.50;3.13;;;;;;;12.08;100.00;96975.09;5007495;28;20245;-62
2022/10/24 00:53:13;;;;;;;4.73;3.40;;;;;;;12.11;100.00;96964.06;4980159;28;20769;-62
2022/10/24 00:55:41;;;;;;;3.57;3.27;;;;;;;12.10;100.00;96997.78;4989105;28;20562;-63
2022/10/24 00:58:09;;;;;;;4.87;3.60;;;;;;;12.08;100.00;96999.81;5011303;28;20615;-63
2022/10/24 01:00:38;;;;;;;5.03;4.13;;;;;;;12.02;100.00;97011.22;5016548;28;20384;-62
2022/10/24 01:03:06;;;;;;;4.80;4.17;;;;;;;11.95;100.00;97003.19;4968064;28;20450;-63
2022/10/24 01:05:41;;;;;;;4.07;3.47;;;;;;;12.00;100.00;96998.13;5008981;28;20206;-61
2022/10/24 01:08:17;;;;;;;6.83;4.43;;;;;;;11.98;100.00;96983.41;5012421;28;20502;-63
2022/10/24 01:10:54;;;;;;;5.67;4.00;;;;;;;11.98;100.00;96973.59;4990225;28;20207;-62
2022/10/24 01:13:30;;;;;;;4.67;3.80;;;;;;;11.92;100.00;96969.06;4998365;28;20887;-61
2022/10/24 01:16:06;;;;;;;6.07;3.60;;;;;;;11.90;100.00;96965.81;5015589;28;20213;-60
2022/10/24 01:18:38;;;;;;;3.50;3.23;;;;;;;11.91;100.00;96962.13;5014684;28;20213;-62
2022/10/24 01:21:15;;;;;;;4.90;3.10;;;;;;;11.92;100.00;96974.38;4954541;28;20826;-61
2022/10/24 01:24:04;;;;;;;4.83;3.17;;;;;;;11.92;100.00;96976.22;5016687;28;20210;-59
2022/10/24 01:27:02;;;;;;;3.47;3.17;;;;;;;11.88;100.00;96973.16;4957708;28;20934;-62
2022/10/24 01:29:47;;;;;;;3.20;3.00;;;;;;;11.87;100.00;96976.81;5014938;28;20199;-60
2022/10/24 01:32:21;;;;;;;7.07;3.27;;;;;;;11.89;100.00;96982.75;5011905;28;20230;-61
2022/10/24 01:35:11;;;;;;;3.10;2.90;;;;;;;11.93;100.00;96988.47;4962407;28;20230;-62
2022/10/24 01:37:44;;;;;;;4.03;3.43;;;;;;;11.96;100.00;96991.56;5008772;28;20511;-62
2022/10/24 01:40:18;;;;;;;5.57;3.30;;;;;;;11.94;100.00;97003.41;5015886;28;20232;-60
2022/10/24 01:42:47;;;;;;;4.00;3.67;;;;;;;11.96;100.00;96999.53;4968811;28;20206;-62
2022/10/24 01:45:22;;;;;;;4.60;3.10;;;;;;;12.00;100.00;97007.94;5000253;28;20566;-61
2022/10/24 01:47:53;;;;;;;4.90;3.30;;;;;;;12.03;100.00;97010.22;5019037;28;20325;-60
2022/10/24 01:50:23;;;;;;;3.67;3.30;;;;;;;12.01;100.00;97009.59;4965920;28;20744;-62
2022/10/24 01:52:53;;;;;;;3.77;3.40;;;;;;;12.03;100.00;97020.84;5015662;28;20325;-61
2022/10/24 01:55:22;;;;;;;6.50;4.00;;;;;;;11.96;100.00;97004.03;5008389;28;20404;-62
2022/10/24 01:57:50;;;;;;;7.07;3.77;;;;;;;12.00;100.00;97011.41;4982781;28;20228;-61
2022/10/24 02:00:22;;;;;;;3.83;3.40;;;;;;;11.98;100.00;97005.44;5017230;28;20432;-62
2022/10/24 02:02:55;;;;;;;4.23;3.70;;;;;;;12.04;100.00;97005.72;5018095;28;20211;-62
2022/10/24 02:05:27;;;;;;;4.10;3.70;;;;;;;12.02;100.00;96997.97;4966825;28;20239;-63
2022/10/24 02:07:58;;;;;;;4.60;3.80;;;;;;;12.04;100.00;96995.09;5017162;28;20257;-63
2022/10/24 02:10:29;;;;;;;4.03;3.63;;;;;;;12.03;100.00;96994.28;4997752;28;20381;-61
2022/10/24 02:13:02;;;;;;;4.30;3.50;;;;;;;12.07;100.00;97003.50;5015965;28;20223;-60
2022/10/24 02:15:34;;;;;;;7.00;4.00;;;;;;;12.13;100.00;97005.34;4987108;28;20445;-61
2022/10/24 02:18:03;;;;;;;3.70;3.40;;;;;;;12.09;100.00;97009.41;5017443;28;20249;-59
2022/10/24 02:20:35;;;;;;;4.73;3.40;;;;;;;12.16;100.00;97002.28;4968528;28;20199;-61
2022/10/24 02:23:06;;;;;;;4.80;3.17;;;;;;;12.15;100.00;96997.19;5017581;28;20385;-59
2022/10/24 02:25:37;;;;;;;4.57;3.43;;;;;;;12.14;100.00;96991.06;5015290;28;22903;-62
2022/10/24 02:28:08;;;;;;;7.73;3.73;;;;;;;12.15;100.00;96982.06;4988131;28;20226;-63
2022/10/24 02:30:43;;;;;;;3.30;3.10;;;;;;;12.10;100.00;96979.19;4986924;28;20512;-62
2022/10/24 02:33:12;;;;;;;4.87;3.10;;;;;;;12.11;100.00;96980.81;5017527;28;20321;-62
2022/10/24 02:35:41;;;;;;;4.47;3.50;;;;;;;12.15;100.00;96986.56;4958074;28;21323;-61
2022/10/24 02:38:13;;;;;;;4.03;3.60;;;;;;;12.19;100.00;96992.28;5017753;28;20568;-60
2022/10/24 02:40:42;;;;;;;5.90;3.13;;;;;;;12.20;100.00;96997.41;5012960;28;21533;-60
2022/10/24 02:43:11;;;;;;;4.13;3.73;;;;;;;12.26;100.00;96996.63;4993814;28;20207;-60
2022/10/24 02:45:41;;;;;;;4.67;3.10;;;;;;;12.20;100.00;96996.59;4987390;28;20415;-60
2022/10/24 02:48:12;;;;;;;3.37;3.17;;;;;;;12.24;100.00;96993.34;5019124;28;20229;-66
2022/10/24 02:50:41;;;;;;;3.30;3.00;;;;;;;12.25;100.00;96994.97;4964959;28;21036;-63
2022/10/24 02:53:13;;;;;;;4.47;3.47;;;;;;;12.20;100.00;96986.78;5014618;28;20261;-63
2022/10/24 02:55:41;;;;;;;4.67;3.67;;;;;;;12.22;100.00;96984.75;5016086;28;20218;-62
2022/10/24 02:58:10;;;;;;;6.80;3.77;;;;;;;12.29;100.00;96985.59;4988958;28;20547;-62
2022/10/24 03:00:40;;;;;;;3.87;3.30;;;;;;;12.27;100.00;96973.50;4984258;28;20305;-60
2022/10/24 03:03:08;;;;;;;7.87;3.87;;;;;;;12.28;100.00;96980.47;5018794;28;20191;-62
2022/10/24 03:05:36;;;;;;;5.57;3.33;;;;;;;12.23;100.00;96969.63;4969669;28;22494;-62
2022/10/24 03:08:05;;;;;;;3.43;3.00;;;;;;;12.22;100.00;96978.59;5016747;28;20593;-62
2022/10/24 03:10:34;;;;;;;5.60;3.10;;;;;;;12.25;100.00;96978.22;5012811;28;20221;-62
2022/10/24 03:13:03;;;;;;;4.80;3.53;;;;;;;12.26;100.00;96977.19;4988269;28;20233;-61
2022/10/24 03:15:31;;;;;;;3.20;2.90;;;;;;;12.28;100.00;96980.47;4991487;28;20307;-62
2022/10/24 03:18:01;;;;;;;5.63;3.63;;;;;;;12.29;100.00;96977.63;4989301;28;20250;-60
2022/10/24 03:20:29;;;;;;;6.57;3.27;;;;;;;12.30;100.00;96975.75;5014718;28;20215;-61
2022/10/24 03:22:58;;;;;;;4.10;3.20;;;;;;;12.28;100.00;96972.50;4970110;28;20214;-61
2022/10/24 03:25:27;;;;;;;3.27;2.97;;;;;;;12.25;100.00;96964.94;5012977;28;20203;-61
2022/10/24 03:27:55;;;;;;;3.33;2.97;;;;;;;12.14;100.00;96972.47;5013920;28;20636;-60
2022/10/24 03:30:23;;;;;;;5.97;3.70;;;;;;;12.07;100.00;96961.00;4989345;28;20213;-60
2022/10/24 03:32:52;;;;;;;4.87;3.23;;;;;;;12.01;100.00;96959.94;4996814;28;20211;-60
2022/10/24 03:35:21;;;;;;;6.87;3.13;;;;;;;11.97;100.00;96947.25;5014686;28;20823;-61
2022/10/24 03:37:49;;;;;;;5.43;3.20;;;;;;;11.94;100.00;96959.06;4975205;28;20238;-61
2022/10/24 03:40:18;;;;;;;4.37;3.13;;;;;;;11.88;100.00;96958.03;5018079;28;20207;-61
2022/10/24 03:42:46;;;;;;;8.50;3.57;;;;;;;11.86;100.00;96968.03;5019978;28;20213;-62
2022/10/24 03:45:15;;;;;;;3.57;3.27;;;;;;;11.82;100.00;96965.97;4990753;28;20315;-62
2022/10/24 03:47:43;;;;;;;5.57;3.53;;;;;;;11.83;100.00;96972.94;5019879;28;20237;-64
2022/10/24 03:50:12;;;;;;;7.43;3.70;;;;;;;11.83;100.00;96989.66;5016969;28;20207;-61
2022/10/24 03:52:41;;;;;;;6.90;3.63;;;;;;;11.77;100.00;96979.81;4990781;28;20214;-63
2022/10/24 03:55:10;;;;;;;3.63;3.07;;;;;;;11.85;100.00;96984.97;4969757;28;20455;-63
2022/10/24 03:57:39;;;;;;;6.40;3.53;;;;;;;11.82;100.00;96974.75;5013892;28;20311;-61
2022/10/24 04:00:08;;;;;;;4.87;3.30;;;;;;;11.83;100.00;96978.22;4975642;28;20694;-60
2022/10/24 04:02:37;;;;;;;6.63;4.13;;;;;;;11.88;100.00;96975.81;4999111;28;20433;-60
2022/10/24 04:05:10;;;;;;;3.63;3.27;;;;;;;11.94;100.00;96979.50;5013358;28;20213;-61
2022/10/24 04:07:38;;;;;;;8.60;4.27;;;;;;;11.94;100.00;96976.84;5014957;28;20341;-61
2022/10/24 04:10:08;;;;;;;4.03;3.30;;;;;;;11.92;100.00;96985.00;4964610;28;20214;-60
2022/10/24 04:12:36;;;;;;;6.63;3.63;;;;;;;11.88;100.00;96975.81;5013280;28;21122;-60
2022/10/24 04:15:06;;;;;;;5.80;4.00;;;;;;;11.89;100.00;96972.13;5017442;28;21107;-60
2022/10/24 04:17:34;;;;;;;4.53;4.07;;;;;;;11.95;100.00;96970.53;4984780;28;20930;-61
2022/10/24 04:20:02;;;;;;;5.57;3.57;;;;;;;12.00;100.00;96984.88;5017001;28;20214;-57
2022/10/24 04:22:30;;;;;;;6.30;3.70;;;;;;;11.99;100.00;96990.34;5015653;28;21228;-58
2022/10/24 04:24:58;;;;;;;6.93;3.83;;;;;;;11.99;100.00;96979.75;5019061;28;20195;-61
2022/10/24 04:27:28;;;;;;;4.20;3.77;;;;;;;11.96;100.00;96972.16;4942845;28;21078;-61
2022/10/24 04:29:56;;;;;;;5.77;4.00;;;;;;;12.00;100.00;96978.72;5016990;28;20207;-63
2022/10/24 04:32:24;;;;;;;7.30;4.53;;;;;;;12.01;100.00;96983.03;4985470;28;20540;-62
2022/10/24 04:34:52;;;;;;;3.77;3.57;;;;;;;11.98;100.00;96976.25;4984755;28;20810;-62
2022/10/24 04:37:20;;;;;;;4.93;4.43;;;;;;;11.96;100.00;96972.97;5014531;28;20321;-62
2022/10/24 04:39:48;;;;;;;5.13;4.27;;;;;;;12.01;100.00;96983.84;4989731;28;20205;-63
2022/10/24 04:42:17;;;;;;;7.70;4.13;;;;;;;12.00;100.00;96992.81;4980070;28;20207;-62
2022/10/24 04:44:46;;;;;;;4.13;3.83;;;;;;;11.98;100.00;96984.22;5015721;28;20207;-62
2022/10/24 04:47:14;;;;;;;7.43;4.30;;;;;;;11.99;100.00;96979.75;5016900;28;20233;-61
2022/10/24 04:49:43;;;;;;;5.07;3.87;;;;;;;11.97;100.00;96979.91;4992849;28;20211;-63
2022/10/24 04:52:11;;;;;;;5.00;4.50;;;;;;;11.98;100.00;96986.88;5013733;28;20203;-61
2022/10/24 04:54:39;;;;;;;4.03;3.73;;;;;;;12.00;100.00;96979.56;4988359;28;20229;-61
2022/10/24 04:57:07;;;;;;;5.60;4.03;;;;;;;12.04;100.00;96979.16;4976428;28;20230;-63
2022/10/24 04:59:35;;;;;;;10.50;4.63;;;;;;;12.04;100.00;96974.69;5015326;28;20227;-63
2022/10/24 05:02:05;;;;;;;6.87;4.97;;;;;;;12.03;100.00;96986.31;5014328;28;20252;-62
2022/10/24 05:04:33;;;;;;;6.20;4.73;;;;;;;11.99;100.00;96985.84;4994365;28;20218;-64
2022/10/24 05:07:01;;;;;;;6.97;4.57;;;;;;;12.02;100.00;96988.13;5013223;28;20650;-62
2022/10/24 05:09:30;;;;;;;7.40;4.83;;;;;;;12.09;100.00;96997.97;5014555;28;20311;-63
2022/10/24 05:11:58;;;;;;;8.60;5.47;;;;;;;12.05;100.00;96997.56;4984367;28;20210;-62
2022/10/24 05:14:26;;;;;;;5.60;4.97;;;;;;;12.15;100.00;97002.50;4996179;28;20273;-62
2022/10/24 05:16:54;;;;;;;5.33;4.20;;;;;;;12.21;100.00;96993.75;5014031;28;20479;-62
2022/10/24 05:19:24;;;;;;;6.83;4.53;;;;;;;12.18;100.00;96999.44;4987886;28;20932;-63
2022/10/24 05:21:52;;;;;;;8.27;4.80;;;;;;;12.20;100.00;97002.72;5017156;28;20586;-63
2022/10/24 05:24:20;;;;;;;8.17;5.20;;;;;;;12.15;100.00;96992.69;5018402;28;20306;-62
2022/10/24 05:26:50;;;;;;;5.90;4.80;;;;;;;12.17;100.00;96989.84;5017428;28;20619;-62
2022/10/24 05:29:18;;;;;;;4.90;4.50;;;;;;;12.19;100.00;96963.91;4958630;28;21929;-61
2022/10/24 05:31:46;;;;;;;7.00;5.07;;;;;;;12.15;100.00;96950.19;5015906;28;20210;-63
2022/10/24 05:34:14;;;;;;;6.90;4.30;;;;;;;12.11;100.00;96954.28;5009505;28;20204;-61
2022/10/24 05:36:44;;;;;;;8.43;5.10;;;;;;;12.09;100.00;96950.16;4980400;28;21251;-61
2022/10/24 05:39:13;;;;;;;6.20;4.50;;;;;;;12.09;100.00;96953.66;5015232;28;20357;-62
2022/10/24 05:41:41;;;;;;;6.47;4.40;;;;;;;12.15;100.00;96955.50;5022825;28;20934;-64
2022/10/24 05:44:14;;;;;;;4.10;3.70;;;;;;;12.19;100.00;96950.63;4967263;28;21349;-62
2022/10/24 05:46:42;;;;;;;4.43;4.03;;;;;;;12.17;100.00;96957.97;5019613;28;20222;-61
2022/10/24 05:49:13;;;;;;;4.60;3.83;;;;;;;12.15;100.00;96976.75;5015884;28;20219;-60
2022/10/24 05:51:41;;;;;;;5.03;4.20;;;;;;;12.19;100.00;96981.66;4994276;28;21321;-60
2022/10/24 05:54:11;;;;;;;7.17;4.13;;;;;;;12.22;100.00;96987.41;5015985;28;20207;-63
2022/10/24 05:56:44;;;;;;;17.60;12.23;;;;;;;12.22;100.00;96984.75;5017462;28;20684;-60
2022/10/24 05:59:12;;;;;;;9.50;5.60;;;;;;;12.21;100.00;96990.25;4931668;28;20324;-60
2022/10/24 06:01:40;;;;;;;6.50;4.57;;;;;;;12.16;100.00;96993.53;5018547;28;20202;-62
2022/10/24 06:04:09;;;;;;;8.47;4.77;;;;;;;12.18;100.00;96988.00;5017950;28;20764;-61
2022/10/24 06:06:41;;;;;;;5.43;4.97;;;;;;;12.16;100.00;96989.00;4989917;28;20272;-60
2022/10/24 06:09:11;;;;;;;6.47;4.50;;;;;;;12.15;100.00;96991.88;5015819;28;20405;-62
2022/10/24 06:11:39;;;;;;;7.80;4.73;;;;;;;12.21;100.00;97015.00;4986715;28;21318;-62
2022/10/24 06:14:08;;;;;;;5.53;4.50;;;;;;;12.17;100.00;97019.06;5015882;28;20217;-61
2022/10/24 06:16:36;;;;;;;5.00;4.13;;;;;;;12.23;100.00;97015.59;4967026;28;20230;-61
2022/10/24 06:19:04;;;;;;;6.33;4.00;;;;;;;12.19;100.00;97006.41;5015613;28;20222;-62
2022/10/24 06:21:32;;;;;;;5.43;4.87;;;;;;;12.23;100.00;97009.47;5019687;28;20207;-62
2022/10/24 06:24:00;;;;;;;6.73;4.50;;;;;;;12.20;100.00;97004.53;4991559;28;20359;-62
2022/10/24 06:26:30;;;;;;;7.27;4.70;;;;;;;12.23;100.00;97004.16;5004159;28;20235;-61
2022/10/24 06:28:58;;;;;;;7.93;4.70;;;;;;;12.14;100.00;96995.56;5014636;28;20207;-62
2022/10/24 06:31:26;;;;;;;6.20;5.67;;;;;;;12.14;100.00;96983.09;4964097;28;20218;-62
2022/10/24 06:33:54;;;;;;;6.23;4.47;;;;;;;12.14;100.00;96979.63;5016292;28;20206;-62
2022/10/24 06:36:23;;;;;;;4.90;4.37;;;;;;;12.20;100.00;96970.84;5015115;28;20470;-62
2022/10/24 06:38:56;;;;;;;6.17;4.20;;;;;;;12.20;100.00;96962.06;4989954;28;20222;-61
2022/10/24 06:41:25;;;;;;;8.67;4.37;;;;;;;12.29;100.00;96982.94;5013517;28;20237;-61
2022/10/24 06:43:55;;;;;;;5.00;4.40;;;;;;;12.36;100.00;96995.41;5014138;28;20479;-61
2022/10/24 06:46:23;;;;;;;4.77;4.37;;;;;;;12.34;100.00;97000.09;5016509;28;20922;-61
2022/10/24 06:48:53;;;;;;;3.83;3.53;;;;;;;12.45;100.00;96992.38;4964997;28;20223;-59
2022/10/24 06:51:22;;;;;;;4.97;3.43;;;;;;;12.48;100.00;96995.66;5014889;28;20826;-59
2022/10/24 06:53:50;;;;;;;6.20;4.03;;;;;;;12.51;100.00;97016.50;5015869;28;20441;-65
2022/10/24 06:56:19;;;;;;;3.77;3.30;;;;;;;12.58;100.00;97020.81;4989906;28;20695;-64
2022/10/24 06:58:47;;;;;;;3.60;3.30;;;;;;;12.63;100.00;97028.19;5023914;28;20742;-56
2022/10/24 07:01:18;;;;;;;4.50;4.10;;;;;;;12.71;100.00;97040.47;5023412;28;20198;-55
2022/10/24 07:03:47;;;;;;;5.30;4.30;;;;;;;12.75;100.00;97033.72;4991073;28;20289;-60
2022/10/24 07:06:17;;;;;;;4.27;3.63;;;;;;;12.75;100.00;97044.38;5022296;28;20222;-61
2022/10/24 07:08:46;;;;;;;4.13;3.43;;;;;;;12.80;100.00;97047.22;5023177;28;20236;-62
2022/10/24 07:11:14;;;;;;;4.10;3.80;;;;;;;12.79;100.00;97042.13;4998189;28;20352;-61
2022/10/24 07:13:42;;;;;;;5.43;3.90;;;;;;;12.79;100.00;97048.25;5022723;28;20208;-64
2022/10/24 07:16:11;;;;;;;5.93;4.13;;;;;;;12.79;100.00;97040.28;5021753;28;20830;-66
2022/10/24 07:18:41;;;;;;;5.23;4.40;;;;;;;12.81;100.00;97048.88;4979240;28;20211;-64
2022/10/24 07:21:11;;;;;;;4.50;3.73;;;;;;;12.77;100.00;97036.19;5014851;28;20199;-67
2022/10/24 07:23:39;;;;;;;7.07;4.23;;;;;;;12.72;100.00;97037.63;5005840;28;20206;-67
2022/10/24 07:26:09;;;;;;;9.00;5.97;;;;;;;12.71;100.00;97046.63;4990392;28;20203;-64
2022/10/24 07:28:38;;;;;;;6.33;5.00;;;;;;;12.74;100.00;97043.56;5018522;28;20222;-66
2022/10/24 07:31:07;;;;;;;4.53;4.20;;;;;;;12.71;100.00;97036.00;5015482;28;21749;-66
2022/10/24 07:33:38;;;;;;;4.40;4.00;;;;;;;12.80;100.00;97019.84;5018600;28;20206;-63
2022/10/24 07:36:08;;;;;;;6.43;3.80;;;;;;;12.76;100.00;97015.97;4977455;28;20964;-65
2022/10/24 07:38:36;;;;;;;4.70;4.27;;;;;;;12.76;100.00;97006.13;5014758;28;20210;-65
2022/10/24 07:41:05;;;;;;;8.17;4.63;;;;;;;12.57;100.00;96983.81;4987134;28;20705;-64
2022/10/24 07:43:34;;;;;;;8.63;4.10;;;;;;;12.61;100.00;96976.25;5015052;28;20203;-64
2022/10/24 07:46:06;;;;;;;5.60;3.90;;;;;;;12.76;100.00;96954.81;5015033;28;20237;-64
2022/10/24 07:48:34;;;;;;;4.53;3.43;;;;;;;12.73;100.00;96935.59;5017029;28;20207;-63
2022/10/24 07:51:07;;;;;;;6.53;3.40;;;;;;;12.86;100.00;96945.38;4960695;28;20754;-64
2022/10/24 07:53:35;;;;;;;7.57;3.87;;;;;;;12.99;100.00;96931.28;5017313;28;20477;-62
2022/10/24 07:56:07;;;;;;;4.53;3.50;;;;;;;13.10;100.00;96948.47;4979535;28;20218;-65
2022/10/24 07:58:36;;;;;;;5.60;3.57;;;;;;;13.20;100.00;96971.16;5017981;28;20393;-66
2022/10/24 08:01:05;;;;;;;4.13;3.43;;;;;;;13.24;100.00;97014.94;5013147;28;20426;-64
2022/10/24 08:03:33;;;;;;;4.40;3.40;;;;;;;13.36;100.00;97047.09;5020260;28;20287;-65
2022/10/24 08:06:04;;;;;;;3.80;3.50;;;;;;;13.32;100.00;97044.03;4961527;28;20210;-63
2022/10/24 08:08:34;;;;;;;4.27;3.77;;;;;;;13.32;100.00;97028.88;5017078;28;20203;-64
2022/10/24 08:11:07;;;;;;;6.83;4.00;;;;;;;13.18;100.00;97033.38;4988961;28;20515;-62
2022/10/24 08:13:35;;;;;;;6.90;3.97;;;;;;;13.10;100.00;97051.38;5018514;28;20213;-62
2022/10/24 08:16:05;;;;;;;5.33;4.10;;;;;;;13.18;100.00;97048.53;5013086;28;20850;-63
2022/10/24 08:18:34;;;;;;;4.13;3.73;;;;;;;13.20;100.00;97065.09;5017753;28;20931;-61
2022/10/24 08:21:07;;;;;;;4.70;3.90;;;;;;;13.20;100.00;97054.47;4961483;28;20219;-63
2022/10/24 08:23:41;;;;;;;6.53;3.90;;;;;;;13.25;100.00;97064.47;5012230;28;22179;-64
2022/10/24 08:26:12;;;;;;;5.07;4.63;;;;;;;13.21;100.00;97073.88;4987601;28;20743;-63
2022/10/24 08:28:41;;;;;;;7.33;4.17;;;;;;;13.25;100.00;97070.63;5014671;28;20214;-64
2022/10/24 08:31:12;;;;;;;5.60;4.10;;;;;;;13.32;100.00;97076.75;5013833;28;20540;-64
2022/10/24 08:33:41;;;;;;;4.53;3.90;;;;;;;13.26;100.00;97087.41;5017645;28;20207;-64
2022/10/24 08:36:15;;;;;;;4.17;3.87;;;;;;;13.47;100.00;97094.41;4962676;28;20526;-64
2022/10/24 08:38:45;;;;;;;5.33;4.07;;;;;;;13.42;100.00;97112.78;4981432;28;20207;-65
2022/10/24 08:41:17;;;;;;;5.97;4.40;;;;;;;13.37;100.00;97126.72;5018194;28;20199;-64
2022/10/24 08:43:45;;;;;;;6.90;5.13;;;;;;;13.43;100.00;97133.91;4982335;28;20295;-64
2022/10/24 08:46:24;;;;;;;8.30;5.40;;;;;;;13.34;100.00;97140.44;5010125;28;20220;-64
2022/10/24 08:48:56;;;;;;;5.60;5.10;;;;;;;13.40;100.00;97136.13;5011612;28;20203;-63
2022/10/24 08:51:29;;;;;;;6.50;5.50;;;;;;;13.44;100.00;97140.03;4992398;28;20889;-64
2022/10/24 08:54:00;;;;;;;5.70;5.10;;;;;;;13.60;100.00;97144.16;5015241;28;20609;-64
2022/10/24 08:56:30;;;;;;;6.00;5.33;;;;;;;13.59;100.00;97148.69;5011927;28;20915;-63
2022/10/24 08:59:00;;;;;;;7.40;6.63;;;;;;;13.62;100.00;97136.78;4968389;28;20221;-64
2022/10/24 09:01:33;;;;;;;9.30;6.43;;;;;;;13.58;100.00;97144.38;5012075;28;21215;-64
2022/10/24 09:04:06;;;;;;;6.30;5.80;;;;;;;13.56;100.00;97148.25;4978912;28;20727;-64
2022/10/24 09:06:34;;;;;;;6.73;5.43;;;;;;;13.52;100.00;97147.03;5010683;28;20226;-64
2022/10/24 09:09:06;;;;;;;7.63;6.50;;;;;;;13.52;100.00;97145.19;4956082;28;20607;-64
2022/10/24 09:11:42;;;;;;;6.87;6.17;;;;;;;13.42;100.00;97137.59;5013309;28;20207;-65
2022/10/24 09:14:13;;;;;;;6.20;5.60;;;;;;;13.57;100.00;97134.75;4954666;28;20566;-63
2022/10/24 09:16:42;;;;;;;7.83;5.80;;;;;;;13.76;100.00;97121.63;5007727;28;20234;-64
2022/10/24 09:19:13;;;;;;;7.97;6.20;;;;;;;13.95;100.00;97124.50;5008133;28;22157;-65
2022/10/24 09:21:42;;;;;;;7.63;6.73;;;;;;;13.87;100.00;97128.19;4968348;28;20207;-64
2022/10/24 09:24:21;;;;;;;6.33;5.73;;;;;;;13.78;100.00;97126.75;4975127;28;20527;-67
2022/10/24 09:26:49;;;;;;;6.93;6.33;;;;;;;13.73;100.00;97135.34;5010651;28;21545;-65
2022/10/24 09:29:17;;;;;;;6.43;5.83;;;;;;;13.67;100.00;97120.19;4951229;28;20462;-64
2022/10/24 09:31:48;;;;;;;8.07;6.23;;;;;;;13.68;100.00;97127.16;5009661;28;20598;-64
2022/10/24 09:34:16;;;;;;;9.20;5.77;;;;;;;13.66;100.00;97123.91;5010604;28;20234;-63
2022/10/24 09:36:45;;;;;;;6.90;6.20;;;;;;;13.81;100.00;97105.84;4978367;28;20229;-66
2022/10/24 09:39:27;;;;;;;6.23;5.70;;;;;;;13.92;100.00;97099.06;4960407;28;20219;-66
2022/10/24 09:41:56;;;;;;;6.30;5.73;;;;;;;14.14;100.00;97090.84;5011081;28;20213;-65
2022/10/24 09:44:31;;;;;;;7.87;6.20;;;;;;;14.42;100.00;97095.06;4988902;28;20210;-67
2022/10/24 09:47:01;;;;;;;6.23;5.73;;;;;;;14.36;100.00;97094.06;4981660;28;20233;-62
2022/10/24 09:49:34;;;;;;;5.77;5.27;;;;;;;14.33;100.00;97105.13;4996279;28;20274;-64
2022/10/24 09:52:08;;;;;;;6.90;6.07;;;;;;;14.61;100.00;97099.50;4981081;28;20253;-63
2022/10/24 09:54:38;;;;;;;6.00;5.53;;;;;;;14.59;100.00;97109.56;4960438;28;20264;-66
2022/10/24 09:57:13;;;;;;;6.07;5.50;;;;;;;14.36;100.00;97099.38;5009462;28;20223;-65
2022/10/24 09:59:44;;;;;;;5.60;5.07;;;;;;;14.61;100.00;97088.81;4985139;28;20219;-65
2022/10/24 10:02:20;;;;;;;6.30;5.70;;;;;;;14.78;100.00;97093.72;4992117;28;20429;-65
2022/10/24 10:04:53;;;;;;;5.50;4.97;;;;;;;14.50;100.00;97107.31;5011065;28;20941;-62
2022/10/24 10:07:27;;;;;;;5.80;5.03;;;;;;;14.27;100.00;97104.13;4985865;28;20621;-64
2022/10/24 10:10:00;;;;;;;5.87;5.37;;;;;;;14.10;100.00;97098.44;4976104;28;20199;-66
2022/10/24 10:12:31;;;;;;;7.20;5.87;;;;;;;14.00;100.00;97114.03;5009143;28;20207;-65
2022/10/24 10:15:00;;;;;;;7.13;5.67;;;;;;;13.88;100.00;97112.00;4982787;28;20202;-63
2022/10/24 10:17:30;;;;;;;6.07;5.53;;;;;;;13.99;100.00;97105.22;4986524;28;21025;-63
2022/10/24 10:19:58;;;;;;;6.03;5.47;;;;;;;14.01;100.00;97107.69;5010108;28;20234;-64
2022/10/24 10:22:28;;;;;;;6.70;5.83;;;;;;;14.08;100.00;97108.47;4986221;28;20264;-61
2022/10/24 10:24:58;;;;;;;5.43;4.90;;;;;;;14.22;100.00;97100.47;5012510;28;20214;-63
2022/10/24 10:27:30;;;;;;;5.63;5.23;;;;;;;14.33;100.00;97097.94;4961971;28;20223;-63
2022/10/24 10:30:20;;;;;;;7.63;5.30;;;;;;;14.27;100.00;97090.00;4986017;28;20417;-64
2022/10/24 10:32:58;;;;;;;6.07;5.57;;;;;;;14.46;100.00;97109.63;4985633;28;20422;-62
2022/10/24 10:35:29;;;;;;;10.43;6.20;;;;;;;14.31;100.00;97107.19;5012241;28;20251;-63
2022/10/24 10:38:03;;;;;;;8.67;6.17;;;;;;;14.24;100.00;97109.88;4987359;28;20226;-64
2022/10/24 10:40:34;;;;;;;7.87;6.40;;;;;;;14.26;100.00;97107.00;5012926;28;20218;-66
2022/10/24 10:43:20;;;;;;;6.60;5.77;;;;;;;14.21;100.00;97125.47;4964840;28;20207;-64
2022/10/24 10:45:51;;;;;;;29.03;24.20;;;;;;;14.07;100.00;97136.16;4985504;28;20222;-63
2022/10/24 10:48:36;;;;;;;8.37;7.30;;;;;;;13.99;100.00;97139.84;4981732;28;20206;-64
2022/10/24 10:51:12;;;;;;;8.87;5.73;;;;;;;13.91;100.00;97142.72;5017562;28;20233;-64
2022/10/24 10:53:44;;;;;;;7.43;6.47;;;;;;;13.82;100.00;97150.09;4984858;28;20206;-66
2022/10/24 10:56:22;;;;;;;6.57;6.00;;;;;;;13.72;100.00;97158.50;5013319;28;20230;-65
2022/10/24 10:58:57;;;;;;;7.70;7.10;;;;;;;13.63;100.00;97156.25;4963343;28;20219;-64
2022/10/24 11:01:33;;;;;;;6.40;5.80;;;;;;;13.59;100.00;97155.81;4987123;28;20518;-64
2022/10/24 11:04:06;;;;;;;7.70;6.47;;;;;;;13.50;100.00;97155.22;4987408;28;20217;-65
2022/10/24 11:06:41;;;;;;;7.13;6.03;;;;;;;13.50;100.00;97157.88;5012115;28;20284;-63
2022/10/24 11:09:25;;;;;;;8.03;6.00;;;;;;;13.48;100.00;97151.94;4984337;28;20205;-68
2022/10/24 11:12:08;;;;;;;10.33;6.27;;;;;;;13.63;100.00;97151.72;5018580;28;20232;-63
2022/10/24 11:14:38;;;;;;;16.77;13.80;;;;;;;13.67;100.00;97150.31;4976766;28;21340;-64
2022/10/24 11:17:13;;;;;;;6.73;6.13;;;;;;;13.56;100.00;97135.78;4989959;28;20223;-64
2022/10/24 11:19:49;;;;;;;7.23;6.40;;;;;;;13.50;100.00;97141.09;4998771;28;20221;-64
2022/10/24 11:22:21;;;;;;;6.93;6.20;;;;;;;13.45;100.00;97115.91;5012079;28;20283;-63
2022/10/24 11:24:56;;;;;;;8.70;6.80;;;;;;;13.38;100.00;97103.56;4985610;28;20757;-63
2022/10/24 11:27:29;;;;;;;6.87;6.33;;;;;;;13.36;100.00;97087.81;5009044;28;20229;-62
2022/10/24 11:30:03;;;;;;;8.40;6.90;;;;;;;13.27;100.00;97051.81;4964329;28;20911;-67
2022/10/24 11:32:34;;;;;;;7.70;6.97;;;;;;;13.41;100.00;96989.56;4982572;28;20401;-64
2022/10/24 11:35:07;;;;;;;6.07;5.03;;;;;;;13.35;100.00;96936.34;4984526;28;20211;-65
2022/10/24 11:37:38;;;;;;;4.90;4.50;;;;;;;13.31;100.00;96927.97;5015414;28;20231;-65
2022/10/24 11:40:11;;;;;;;5.53;4.63;;;;;;;13.30;100.00;96921.84;5018202;28;20222;-65